createdAt,value
2018-05-07T00:00:41.021Z,0
2018-05-07T00:01:50.846Z,0
2018-05-07T00:03:00.927Z,0
2018-05-07T00:04:11.055Z,0
2018-05-07T00:05:21.277Z,0
2018-05-07T00:06:31.423Z,0
2018-05-07T00:07:40.991Z,0
2018-05-07T00:08:50.821Z,0
2018-05-07T00:10:00.986Z,0
2018-05-07T00:11:11.115Z,0
2018-05-07T00:12:20.972Z,0
2018-05-07T00:13:31.069Z,0
2018-05-07T00:14:41.135Z,0
2018-05-07T00:15:51.397Z,0
2018-05-07T00:17:01.271Z,0
2018-05-07T00:18:11.071Z,0
2018-05-07T00:19:21.166Z,0
2018-05-07T00:20:31.290Z,0
2018-05-07T00:21:41.389Z,0
2018-05-07T00:22:51.460Z,0
2018-05-07T00:24:01.279Z,0
2018-05-07T00:25:11.112Z,0
2018-05-07T00:26:21.194Z,0
2018-05-07T00:27:31.335Z,0
2018-05-07T00:28:41.475Z,0
2018-05-07T00:29:51.551Z,0
2018-05-07T00:31:01.694Z,0
2018-05-07T00:32:11.770Z,0
2018-05-07T00:33:21.803Z,0
2018-05-07T00:34:31.624Z,0
2018-05-07T00:35:41.691Z,0
2018-05-07T00:36:51.514Z,0
2018-05-07T00:38:01.611Z,0
2018-05-07T00:39:11.681Z,0
2018-05-07T00:40:21.752Z,0
2018-05-07T00:41:31.828Z,0
2018-05-07T00:42:41.903Z,0
2018-05-07T00:43:51.709Z,0
2018-05-07T00:45:01.780Z,0
2018-05-07T00:46:11.860Z,0
2018-05-07T00:47:21.940Z,0
2018-05-07T00:48:32.029Z,0
2018-05-07T00:49:42.117Z,0
2018-05-07T00:50:52.002Z,0
2018-05-07T00:52:02.099Z,0
2018-05-07T00:53:11.898Z,0
2018-05-07T00:54:21.989Z,0
2018-05-07T00:55:32.068Z,0
2018-05-07T00:56:41.878Z,0
2018-05-07T00:57:52.008Z,0
2018-05-07T00:59:02.090Z,0
2018-05-07T01:00:12.175Z,0
2018-05-07T01:01:22.245Z,0
2018-05-07T01:02:32.307Z,0
2018-05-07T01:03:42.424Z,0
2018-05-07T01:04:51.970Z,0
2018-05-07T01:06:02.051Z,0
2018-05-07T01:07:11.863Z,0
2018-05-07T01:08:21.925Z,0
2018-05-07T01:09:31.996Z,0
2018-05-07T01:10:41.837Z,0
2018-05-07T01:11:51.904Z,0
2018-05-07T01:13:01.719Z,0
2018-05-07T01:14:11.812Z,0
2018-05-07T01:15:21.890Z,0
2018-05-07T01:16:31.977Z,0
2018-05-07T01:17:41.788Z,0
2018-05-07T01:18:51.850Z,0
2018-05-07T01:20:01.911Z,0
2018-05-07T01:21:11.724Z,0
2018-05-07T01:22:21.523Z,0
2018-05-07T01:23:31.601Z,0
2018-05-07T01:24:41.398Z,0
2018-05-07T01:25:50.953Z,0
2018-05-07T01:27:00.767Z,0
2018-05-07T01:28:10.845Z,0
2018-05-07T01:29:20.645Z,0
2018-05-07T01:30:30.459Z,0
2018-05-07T01:31:40.533Z,0
2018-05-07T01:32:50.604Z,0
2018-05-07T01:34:00.687Z,0
2018-05-07T01:35:10.484Z,0
2018-05-07T01:36:20.022Z,0
2018-05-07T01:37:29.832Z,0
2018-05-07T01:38:39.908Z,0
2018-05-07T01:39:49.718Z,0
2018-05-07T01:40:59.774Z,0
2018-05-07T01:42:09.059Z,0
2018-05-07T01:43:19.144Z,0
2018-05-07T01:44:29.266Z,0
2018-05-07T01:45:39.090Z,0
2018-05-07T01:46:49.152Z,0
2018-05-07T01:47:59.227Z,0
2018-05-07T01:49:09.046Z,0
2018-05-07T01:50:19.117Z,0
2018-05-07T01:51:29.183Z,0
2018-05-07T01:52:39.332Z,0
2018-05-07T01:53:49.154Z,0
2018-05-07T01:54:59.235Z,0
2018-05-07T01:56:09.296Z,0
2018-05-07T01:57:19.372Z,0
2018-05-07T01:58:29.428Z,0
2018-05-07T01:59:39.255Z,0
2018-05-07T02:00:49.065Z,0
2018-05-07T02:01:59.184Z,0
2018-05-07T02:03:09.262Z,0
2018-05-07T02:04:19.351Z,0
2018-05-07T02:05:29.435Z,0
2018-05-07T02:06:39.489Z,0
2018-05-07T02:07:49.576Z,0
2018-05-07T02:08:59.387Z,0
2018-05-07T02:10:08.931Z,0
2018-05-07T02:11:18.774Z,0
2018-05-07T02:12:28.842Z,0
2018-05-07T02:13:38.921Z,0
2018-05-07T02:14:48.467Z,0
2018-05-07T02:15:58.528Z,0
2018-05-07T02:17:08.607Z,0
2018-05-07T02:18:18.146Z,0
2018-05-07T02:19:28.256Z,0
2018-05-07T02:20:38.056Z,0
2018-05-07T02:21:48.113Z,0
2018-05-07T02:22:57.921Z,0
2018-05-07T02:24:07.989Z,0
2018-05-07T02:25:18.103Z,0
2018-05-07T02:26:28.177Z,0
2018-05-07T02:27:37.729Z,0
2018-05-07T02:28:47.820Z,0
2018-05-07T02:29:57.894Z,0
2018-05-07T02:31:07.971Z,0
2018-05-07T02:32:18.051Z,0
2018-05-07T02:33:28.138Z,0
2018-05-07T02:34:38.252Z,0
2018-05-07T02:35:48.345Z,0
2018-05-07T02:36:58.471Z,0
2018-05-07T02:38:08.271Z,0
2018-05-07T02:39:18.340Z,0
2018-05-07T02:40:28.428Z,0
2018-05-07T02:41:38.514Z,0
2018-05-07T02:42:48.640Z,0
2018-05-07T02:43:58.721Z,0
2018-05-07T02:45:08.809Z,0
2018-05-07T02:46:18.954Z,0
2018-05-07T02:47:28.770Z,0
2018-05-07T02:48:38.908Z,0
2018-05-07T02:49:48.718Z,0
2018-05-07T02:50:58.535Z,4
2018-05-07T02:52:08.613Z,0
2018-05-07T02:53:18.696Z,0
2018-05-07T02:54:28.569Z,4
2018-05-07T02:55:38.379Z,4
2018-05-07T02:56:48.448Z,4
2018-05-07T02:57:58.256Z,4
2018-05-07T02:59:08.091Z,4
2018-05-07T03:00:18.157Z,4
2018-05-07T03:01:28.228Z,4
2018-05-07T03:33:50.273Z,292
2018-05-07T03:35:00.318Z,320
2018-05-07T03:36:10.378Z,348
2018-05-07T03:37:20.448Z,380
2018-05-07T03:38:29.987Z,408
2018-05-07T03:39:40.067Z,440
2018-05-07T03:40:49.892Z,476
2018-05-07T03:41:59.693Z,508
2018-05-07T03:43:09.757Z,544
2018-05-07T03:44:19.827Z,580
2018-05-07T03:45:29.958Z,620
2018-05-07T03:46:40.028Z,652
2018-05-07T03:47:50.102Z,692
2018-05-07T03:48:59.921Z,732
2018-05-07T03:50:09.985Z,768
2018-05-07T03:51:20.098Z,812
2018-05-07T03:52:30.218Z,852
2018-05-07T03:53:40.289Z,892
2018-05-07T03:54:50.356Z,936
2018-05-07T03:56:00.432Z,976
2018-05-07T03:57:10.515Z,1016
2018-05-07T03:58:20.345Z,1060
2018-05-07T03:59:30.156Z,1104
2018-05-07T04:00:40.225Z,1148
2018-05-07T04:01:50.024Z,1188
2018-05-07T04:02:59.841Z,1232
2018-05-07T04:04:09.914Z,1276
2018-05-07T04:05:19.975Z,1320
2018-05-07T04:06:30.032Z,1368
2018-05-07T04:07:40.099Z,1412
2018-05-07T04:08:50.165Z,1460
2018-05-07T04:10:00.241Z,1508
2018-05-07T04:11:10.058Z,1560
2018-05-07T04:12:19.866Z,1608
2018-05-07T04:13:29.943Z,1660
2018-05-07T04:14:40.021Z,1716
2018-05-07T04:15:50.092Z,1764
2018-05-07T04:17:00.172Z,1816
2018-05-07T04:18:09.976Z,1884
2018-05-07T04:19:20.061Z,1940
2018-05-07T04:20:29.604Z,2424
2018-05-07T04:21:39.908Z,4744
2018-05-07T04:22:49.713Z,6632
2018-05-07T04:23:59.795Z,4880
2018-05-07T04:25:09.871Z,3164
2018-05-07T04:26:19.952Z,3772
2018-05-07T04:27:30.034Z,3604
2018-05-07T04:28:39.861Z,2932
2018-05-07T04:29:49.681Z,3128
2018-05-07T04:30:59.748Z,2752
2018-05-07T04:32:09.608Z,2772
2018-05-07T04:33:19.415Z,2932
2018-05-07T04:34:28.966Z,3196
2018-05-07T04:35:39.031Z,4488
2018-05-07T04:36:49.102Z,5440
2018-05-07T04:37:59.168Z,5128
2018-05-07T04:39:09.239Z,7612
2018-05-07T04:40:19.301Z,10420
2018-05-07T04:41:29.445Z,9852
2018-05-07T04:42:39.530Z,9420
2018-05-07T04:43:49.331Z,10372
2018-05-07T04:44:59.389Z,11024
2018-05-07T04:46:09.196Z,9768
2018-05-07T04:47:19.266Z,10840
2018-05-07T04:48:29.328Z,10648
2018-05-07T04:49:39.400Z,10492
2018-05-07T04:50:49.468Z,10652
2018-05-07T04:51:59.527Z,10516
2018-05-07T04:53:09.343Z,10352
2018-05-07T04:54:19.451Z,10168
2018-05-07T04:55:29.526Z,10068
2018-05-07T04:56:39.596Z,10028
2018-05-07T04:57:49.667Z,9908
2018-05-07T04:58:59.729Z,9820
2018-05-07T05:00:09.807Z,9484
2018-05-07T05:01:19.627Z,9588
2018-05-07T05:02:29.703Z,9924
2018-05-07T05:03:39.777Z,10024
2018-05-07T05:04:49.842Z,9776
2018-05-07T05:05:59.930Z,10124
2018-05-07T05:07:10.275Z,10048
2018-05-07T05:08:20.193Z,10324
2018-05-07T05:09:30.319Z,10412
2018-05-07T05:10:40.382Z,10212
2018-05-07T05:11:50.199Z,10268
2018-05-07T05:13:00.011Z,10736
2018-05-07T05:14:10.078Z,10776
2018-05-07T05:15:19.880Z,10776
2018-05-07T05:16:29.701Z,10696
2018-05-07T05:17:39.509Z,10876
2018-05-07T05:18:49.582Z,10944
2018-05-07T05:19:59.669Z,10896
2018-05-07T05:21:09.932Z,11064
2018-05-07T05:22:20.026Z,11024
2018-05-07T05:23:29.587Z,11108
2018-05-07T05:24:39.708Z,11084
2018-05-07T05:25:49.799Z,11084
2018-05-07T05:26:59.615Z,10964
2018-05-07T05:28:09.690Z,11000
2018-05-07T05:29:19.788Z,11068
2018-05-07T05:30:29.669Z,10976
2018-05-07T05:31:39.222Z,10956
2018-05-07T05:32:49.291Z,11004
2018-05-07T05:33:59.373Z,10992
2018-05-07T05:35:09.178Z,10940
2018-05-07T05:36:19.244Z,11124
2018-05-07T05:37:29.243Z,10984
2018-05-07T05:38:39.370Z,10664
2018-05-07T05:39:49.449Z,10236
2018-05-07T05:40:59.508Z,10136
2018-05-07T05:42:09.569Z,10004
2018-05-07T05:43:19.637Z,9884
2018-05-07T05:44:28.661Z,9748
2018-05-07T05:45:38.741Z,9592
2018-05-07T05:46:48.570Z,9348
2018-05-07T05:47:58.639Z,9444
2018-05-07T05:49:08.736Z,9280
2018-05-07T05:50:18.547Z,9328
2018-05-07T05:51:28.542Z,9176
2018-05-07T05:52:38.361Z,9036
2018-05-07T05:53:48.470Z,9060
2018-05-07T05:54:58.527Z,8396
2018-05-07T05:56:08.441Z,5492
2018-05-07T05:57:18.587Z,3996
2018-05-07T05:58:28.652Z,3860
2018-05-07T05:59:38.816Z,3816
2018-05-07T06:00:48.904Z,3796
2018-05-07T06:01:58.984Z,3788
2018-05-07T06:03:09.069Z,3776
2018-05-07T06:04:19.133Z,3768
2018-05-07T06:05:29.207Z,3760
2018-05-07T06:06:39.289Z,3764
2018-05-07T06:07:49.376Z,3800
2018-05-07T06:08:59.566Z,4192
2018-05-07T06:10:09.436Z,4648
2018-05-07T06:11:19.251Z,4856
2018-05-07T06:12:29.339Z,4836
2018-05-07T06:13:39.154Z,4796
2018-05-07T06:14:50.055Z,4780
2018-05-07T06:16:00.632Z,4756
2018-05-07T06:17:10.442Z,4692
2018-05-07T06:18:20.526Z,4712
2018-05-07T06:19:30.416Z,4688
2018-05-07T06:20:40.512Z,4616
2018-05-07T06:21:50.576Z,4584
2018-05-07T06:23:00.712Z,4588
2018-05-07T06:24:10.805Z,4500
2018-05-07T06:25:20.623Z,4416
2018-05-07T06:26:30.704Z,4408
2018-05-07T06:27:40.772Z,4188
2018-05-07T06:28:50.614Z,3888
2018-05-07T06:30:00.737Z,4012
2018-05-07T06:31:10.853Z,4248
2018-05-07T06:32:20.916Z,4256
2018-05-07T06:33:30.718Z,4232
2018-05-07T06:34:40.612Z,4208
2018-05-07T06:35:50.457Z,4212
2018-05-07T06:37:00.571Z,4188
2018-05-07T06:38:10.403Z,4096
2018-05-07T06:39:20.226Z,3976
2018-05-07T06:40:30.350Z,3932
2018-05-07T06:41:40.440Z,3956
2018-05-07T06:42:50.250Z,4100
2018-05-07T06:44:00.400Z,4272
2018-05-07T06:45:10.608Z,4112
2018-05-07T06:46:21.042Z,3932
2018-05-07T06:47:31.178Z,3940
2018-05-07T06:48:40.988Z,3868
2018-05-07T06:49:51.101Z,3860
2018-05-07T06:51:01.201Z,3868
2018-05-07T06:52:11.513Z,3872
2018-05-07T06:53:21.730Z,3872
2018-05-07T06:54:31.636Z,3876
2018-05-07T06:55:40.923Z,3888
2018-05-07T06:56:51.020Z,3904
2018-05-07T06:58:00.905Z,3924
2018-05-07T06:59:10.709Z,3916
2018-05-07T07:00:20.803Z,3932
2018-05-07T07:01:30.873Z,3952
2018-05-07T07:02:41.519Z,3968
2018-05-07T07:03:51.994Z,3960
2018-05-07T07:05:01.822Z,3976
2018-05-07T07:06:11.904Z,3988
2018-05-07T07:07:21.992Z,4000
2018-05-07T07:08:33.530Z,3980
2018-05-07T07:09:43.924Z,4020
2018-05-07T07:10:53.985Z,4028
2018-05-07T07:12:03.531Z,4056
2018-05-07T07:13:13.345Z,4072
2018-05-07T07:14:23.435Z,4084
2018-05-07T07:15:33.522Z,4056
2018-05-07T07:16:43.613Z,4096
2018-05-07T07:17:53.443Z,4100
2018-05-07T07:19:03.270Z,4136
2018-05-07T07:20:13.105Z,4136
2018-05-07T07:21:23.197Z,4164
2018-05-07T07:22:33.303Z,4184
2018-05-07T07:23:43.380Z,4192
2018-05-07T07:24:53.451Z,4196
2018-05-07T07:26:03.523Z,4212
2018-05-07T07:27:13.341Z,4224
2018-05-07T07:28:23.626Z,4212
2018-05-07T07:29:33.728Z,4252
2018-05-07T07:30:43.819Z,4268
2018-05-07T07:31:53.890Z,4264
2018-05-07T07:33:04.000Z,4268
2018-05-07T07:34:14.174Z,4296
2018-05-07T07:35:24.243Z,4312
2018-05-07T07:36:34.318Z,4324
2018-05-07T07:37:44.126Z,4344
2018-05-07T07:38:54.294Z,4368
2018-05-07T07:40:05.574Z,4388
2018-05-07T07:41:15.660Z,4388
2018-05-07T07:42:25.729Z,4400
2018-05-07T07:43:35.973Z,4420
2018-05-07T07:44:45.539Z,4436
2018-05-07T07:45:55.361Z,4452
2018-05-07T07:47:05.765Z,4468
2018-05-07T07:48:16.107Z,4476
2018-05-07T07:49:26.274Z,4496
2018-05-07T07:50:36.436Z,4504
2018-05-07T07:51:46.510Z,4524
2018-05-07T07:52:56.650Z,4540
2018-05-07T07:54:06.425Z,4544
2018-05-07T07:55:16.866Z,4556
2018-05-07T07:56:26.943Z,4568
2018-05-07T07:57:37.262Z,4576
2018-05-07T07:58:47.338Z,4576
2018-05-07T07:59:57.504Z,4580
2018-05-07T08:01:07.789Z,4596
2018-05-07T08:02:17.596Z,4600
2018-05-07T08:03:27.689Z,4612
2018-05-07T08:04:37.778Z,4620
2018-05-07T08:05:48.066Z,4612
2018-05-07T08:06:58.288Z,4620
2018-05-07T08:08:08.366Z,4660
2018-05-07T08:09:18.236Z,4672
2018-05-07T08:10:28.485Z,4680
2018-05-07T08:11:38.627Z,4684
2018-05-07T08:12:48.757Z,4700
2018-05-07T08:13:59.087Z,4716
2018-05-07T08:15:09.596Z,4716
2018-05-07T08:16:19.674Z,4716
2018-05-07T08:17:29.754Z,4728
2018-05-07T08:18:39.977Z,4732
2018-05-07T08:19:50.047Z,4728
2018-05-07T08:21:00.138Z,4744
2018-05-07T08:22:10.340Z,4748
2018-05-07T08:23:20.495Z,4768
2018-05-07T08:24:30.787Z,4764
2018-05-07T08:25:41.191Z,4764
2018-05-07T08:26:51.365Z,4768
2018-05-07T08:28:01.716Z,4776
2018-05-07T08:29:11.654Z,4796
2018-05-07T08:30:22.389Z,4812
2018-05-07T08:31:32.402Z,4808
2018-05-07T08:32:42.733Z,4816
2018-05-07T08:33:52.975Z,4828
2018-05-07T08:35:03.402Z,4852
2018-05-07T08:36:13.230Z,4880
2018-05-07T08:37:23.418Z,4876
2018-05-07T08:38:33.312Z,4864
2018-05-07T08:39:43.372Z,4880
2018-05-07T08:40:52.930Z,4888
2018-05-07T08:42:02.741Z,4896
2018-05-07T08:43:12.822Z,4904
2018-05-07T08:44:22.913Z,4916
2018-05-07T08:45:32.761Z,4920
2018-05-07T08:46:42.577Z,4928
2018-05-07T08:47:52.379Z,4952
2018-05-07T08:49:02.476Z,4980
2018-05-07T08:50:12.037Z,4976
2018-05-07T08:51:22.126Z,4988
2018-05-07T08:52:32.214Z,4984
2018-05-07T08:53:42.288Z,4968
2018-05-07T08:54:51.838Z,5000
2018-05-07T08:56:01.671Z,5008
2018-05-07T08:57:11.762Z,5024
2018-05-07T08:58:21.833Z,5052
2018-05-07T08:59:31.926Z,5060
2018-05-07T09:00:42.001Z,5068
2018-05-07T09:01:52.235Z,5004
2018-05-07T09:03:02.362Z,5068
2018-05-07T09:04:12.464Z,5064
2018-05-07T09:05:24.328Z,5100
2018-05-07T09:06:34.426Z,5148
2018-05-07T09:07:45.592Z,5148
2018-05-07T09:08:59.992Z,5152
2018-05-07T09:10:12.813Z,5172
2018-05-07T09:11:25.094Z,5180
2018-05-07T09:12:35.184Z,5184
2018-05-07T09:13:45.522Z,5188
2018-05-07T09:14:57.916Z,5192
2018-05-07T09:16:11.193Z,5192
2018-05-07T09:17:21.891Z,5216
2018-05-07T09:18:32.475Z,5216
2018-05-07T09:19:43.364Z,5240
2018-05-07T09:20:54.357Z,5248
2018-05-07T09:22:04.924Z,5268
2018-05-07T09:23:15.980Z,5284
2018-05-07T09:24:26.172Z,5292
2018-05-07T09:25:36.424Z,5312
2018-05-07T09:26:49.178Z,5320
2018-05-07T09:28:02.475Z,5320
2018-05-07T09:29:16.292Z,5356
2018-05-07T09:30:30.736Z,5352
2018-05-07T09:31:47.901Z,5348
2018-05-07T09:33:05.056Z,5356
2018-05-07T09:34:22.648Z,5376
2018-05-07T09:35:40.699Z,5384
2018-05-07T09:36:59.520Z,5408
2018-05-07T09:38:14.804Z,5436
2018-05-07T09:39:30.026Z,5452
2018-05-07T09:40:45.988Z,5456
2018-05-07T09:42:01.677Z,5480
2018-05-07T09:43:17.117Z,5492
2018-05-07T09:44:33.731Z,5488
2018-05-07T09:45:49.579Z,5552
2018-05-07T09:47:05.567Z,5520
2018-05-07T09:48:22.757Z,5516
2018-05-07T09:49:37.917Z,5536
2018-05-07T09:50:54.905Z,5560
2018-05-07T09:52:09.574Z,5556
2018-05-07T09:53:28.231Z,5548
2018-05-07T09:54:46.220Z,5584
2018-05-07T09:56:02.411Z,5592
2018-05-07T09:57:18.415Z,5632
2018-05-07T09:58:34.645Z,5676
2018-05-07T09:59:50.381Z,5692
2018-05-07T10:01:07.785Z,5716
2018-05-07T10:02:24.694Z,5724
2018-05-07T10:03:39.213Z,5740
2018-05-07T10:04:55.832Z,5752
2018-05-07T10:06:11.853Z,5756
2018-05-07T10:07:26.487Z,5772
2018-05-07T10:08:43.505Z,5768
2018-05-07T10:10:01.128Z,5772
2018-05-07T10:11:17.807Z,5796
2018-05-07T10:12:36.436Z,5796
2018-05-07T10:13:52.360Z,5808
2018-05-07T10:15:08.187Z,5844
2018-05-07T10:16:22.505Z,5860
2018-05-07T10:17:34.501Z,5864
2018-05-07T10:18:44.601Z,5892
2018-05-07T10:19:57.433Z,5896
2018-05-07T10:21:14.438Z,5908
2018-05-07T10:22:27.812Z,5920
2018-05-07T10:23:42.199Z,5920
2018-05-07T10:25:00.528Z,5932
2018-05-07T10:26:17.849Z,5956
2018-05-07T10:27:32.159Z,5956
2018-05-07T10:28:48.715Z,5984
2018-05-07T10:30:06.821Z,6000
2018-05-07T10:31:25.342Z,6004
2018-05-07T10:32:42.150Z,6028
2018-05-07T10:33:56.567Z,6036
2018-05-07T10:35:12.269Z,6064
2018-05-07T10:36:28.276Z,6076
2018-05-07T10:37:42.779Z,6092
2018-05-07T10:38:55.646Z,6108
2018-05-07T10:40:09.116Z,6120
2018-05-07T10:41:22.983Z,6136
2018-05-07T10:42:38.578Z,6156
2018-05-07T10:43:56.345Z,6160
2018-05-07T10:45:12.866Z,6160
2018-05-07T10:46:26.565Z,6192
2018-05-07T10:47:40.113Z,6196
2018-05-07T10:48:55.951Z,6200
2018-05-07T10:50:12.777Z,6244
2018-05-07T10:51:30.691Z,6264
2018-05-07T10:52:45.957Z,6276
2018-05-07T10:54:02.167Z,6288
2018-05-07T10:55:17.958Z,6296
2018-05-07T10:56:31.987Z,6324
2018-05-07T10:57:47.069Z,6320
2018-05-07T10:59:05.541Z,6340
2018-05-07T11:00:20.800Z,6348
2018-05-07T11:01:35.498Z,6348
2018-05-07T11:02:49.260Z,6360
2018-05-07T11:04:05.511Z,6384
2018-05-07T11:05:21.368Z,6408
2018-05-07T11:06:35.508Z,6416
2018-05-07T11:07:48.497Z,6420
2018-05-07T11:08:58.573Z,6420
2018-05-07T11:10:10.363Z,6424
2018-05-07T11:11:21.358Z,6420
2018-05-07T11:12:31.470Z,6456
2018-05-07T11:13:46.439Z,6460
2018-05-07T11:15:01.793Z,6476
2018-05-07T11:16:16.569Z,6484
2018-05-07T11:17:32.816Z,6488
2018-05-07T11:18:45.786Z,6496
2018-05-07T11:19:59.529Z,6508
2018-05-07T11:21:13.936Z,6524
2018-05-07T11:22:25.789Z,6520
2018-05-07T11:23:35.893Z,6532
2018-05-07T11:24:46.000Z,6548
2018-05-07T11:25:55.850Z,6540
2018-05-07T11:27:05.681Z,6552
2018-05-07T11:28:15.558Z,6576
2018-05-07T11:29:25.645Z,6564
2018-05-07T11:30:35.729Z,6568
2018-05-07T11:31:45.553Z,6576
2018-05-07T11:32:55.378Z,6580
2018-05-07T11:34:05.516Z,6584
2018-05-07T11:35:15.597Z,6588
2018-05-07T11:36:25.729Z,6576
2018-05-07T11:37:35.826Z,6600
2018-05-07T11:38:45.656Z,6588
2018-05-07T11:39:55.533Z,6556
2018-05-07T11:41:05.612Z,6596
2018-05-07T11:42:15.716Z,6608
2018-05-07T11:43:25.819Z,6592
2018-05-07T11:44:35.917Z,6592
2018-05-07T11:45:46.068Z,6588
2018-05-07T11:46:56.164Z,6588
2018-05-07T11:48:06.072Z,6592
2018-05-07T11:49:16.165Z,6608
2018-05-07T11:50:26.335Z,6608
2018-05-07T11:51:36.428Z,6612
2018-05-07T11:52:46.546Z,6584
2018-05-07T11:53:56.378Z,6612
2018-05-07T11:55:06.482Z,6604
2018-05-07T11:56:16.560Z,6612
2018-05-07T11:57:26.726Z,6632
2018-05-07T11:58:36.819Z,6644
2018-05-07T11:59:46.924Z,6628
2018-05-07T12:00:57.009Z,6648
2018-05-07T12:02:07.136Z,6636
2018-05-07T12:03:17.086Z,6632
2018-05-07T12:04:27.187Z,6632
2018-05-07T12:05:37.281Z,6628
2018-05-07T12:06:47.377Z,6636
2018-05-07T12:07:57.475Z,6628
2018-05-07T12:09:07.940Z,6632
2018-05-07T12:10:18.077Z,6612
2018-05-07T12:11:28.192Z,6608
2018-05-07T12:12:38.296Z,6604
2018-05-07T12:13:48.384Z,6620
2018-05-07T12:22:08.033Z,6540
2018-05-07T12:23:18.449Z,6540
2018-05-07T12:24:28.680Z,6532
2018-05-07T12:25:38.758Z,6500
2018-05-07T12:26:48.847Z,6488
2018-05-07T12:27:59.002Z,6484
2018-05-07T12:29:08.846Z,6460
2018-05-07T12:30:18.687Z,6496
2018-05-07T12:31:29.175Z,6460
2018-05-07T12:32:39.431Z,6456
2018-05-07T12:33:49.527Z,6432
2018-05-07T12:34:59.609Z,6408
2018-05-07T12:36:09.454Z,6380
2018-05-07T12:37:19.532Z,6372
2018-05-07T12:38:29.621Z,6364
2018-05-07T12:39:39.416Z,6368
2018-05-07T12:40:49.268Z,6308
2018-05-07T12:41:59.362Z,6332
2018-05-07T12:43:09.444Z,6308
2018-05-07T12:44:19.528Z,6300
2018-05-07T12:45:29.632Z,6288
2018-05-07T12:46:39.481Z,6272
2018-05-07T12:47:49.743Z,6280
2018-05-07T12:48:59.835Z,6252
2018-05-07T12:50:09.926Z,6244
2018-05-07T12:51:19.758Z,6236
2018-05-07T12:52:29.678Z,6244
2018-05-07T12:53:39.930Z,6224
2018-05-07T12:54:49.742Z,6176
2018-05-07T12:55:59.840Z,6168
2018-05-07T12:57:09.945Z,6160
2018-05-07T12:58:20.040Z,6144
2018-05-07T12:59:29.893Z,6136
2018-05-07T13:00:39.992Z,6112
2018-05-07T13:01:50.089Z,6084
2018-05-07T13:03:00.237Z,6060
2018-05-07T13:04:10.070Z,6096
2018-05-07T13:05:20.206Z,6076
2018-05-07T13:06:29.486Z,6052
2018-05-07T13:07:39.313Z,6056
2018-05-07T13:08:49.190Z,6024
2018-05-07T13:09:59.308Z,6020
2018-05-07T13:11:09.431Z,5972
2018-05-07T13:12:19.255Z,5960
2018-05-07T13:13:29.346Z,5952
2018-05-07T13:14:39.194Z,5936
2018-05-07T13:15:49.375Z,5896
2018-05-07T13:16:59.207Z,5960
2018-05-07T13:18:09.303Z,5952
2018-05-07T13:19:19.131Z,5916
2018-05-07T13:20:29.270Z,5908
2018-05-07T13:21:39.363Z,5896
2018-05-07T13:22:49.471Z,5860
2018-05-07T13:23:59.564Z,5860
2018-05-07T13:25:09.405Z,5816
2018-05-07T13:26:19.502Z,5812
2018-05-07T13:27:29.652Z,5796
2018-05-07T13:28:39.742Z,5784
2018-05-07T13:29:49.567Z,5772
2018-05-07T13:30:59.423Z,5764
2018-05-07T13:32:09.510Z,5728
2018-05-07T13:33:19.598Z,5732
2018-05-07T13:34:29.973Z,5712
2018-05-07T13:35:39.785Z,5700
2018-05-07T13:36:50.039Z,5672
2018-05-07T13:37:59.868Z,5660
2018-05-07T13:39:09.959Z,5640
2018-05-07T13:40:19.781Z,5620
2018-05-07T13:41:29.876Z,5616
2018-05-07T13:42:40.037Z,5588
2018-05-07T13:43:49.864Z,5560
2018-05-07T13:44:59.703Z,5540
2018-05-07T13:46:09.541Z,5512
2018-05-07T13:47:19.639Z,5500
2018-05-07T13:48:29.760Z,5476
2018-05-07T13:49:39.853Z,5460
2018-05-07T13:50:49.696Z,5432
2018-05-07T13:51:59.800Z,5424
2018-05-07T13:53:09.889Z,5404
2018-05-07T13:54:20.007Z,5404
2018-05-07T13:55:29.842Z,5388
2018-05-07T13:56:39.664Z,5396
2018-05-07T13:57:49.493Z,5336
2018-05-07T13:58:59.331Z,5324
2018-05-07T14:00:09.481Z,5304
2018-05-07T14:01:19.601Z,5300
2018-05-07T14:02:29.703Z,5272
2018-05-07T14:03:39.519Z,5248
2018-05-07T14:04:49.617Z,5228
2018-05-07T14:05:59.428Z,5204
2018-05-07T14:07:09.264Z,5184
2018-05-07T14:08:19.353Z,5176
2018-05-07T14:09:29.211Z,5152
2018-05-07T14:10:39.301Z,5152
2018-05-07T14:11:49.153Z,5124
2018-05-07T14:12:59.030Z,5124
2018-05-07T14:14:09.154Z,5096
2018-05-07T14:15:18.984Z,5076
2018-05-07T14:16:29.072Z,5044
2018-05-07T14:17:39.160Z,5024
2018-05-07T14:18:49.341Z,5016
2018-05-07T14:19:59.427Z,4988
2018-05-07T14:21:09.257Z,4972
2018-05-07T14:22:19.329Z,4964
2018-05-07T14:23:29.429Z,4956
2018-05-07T14:24:39.587Z,4940
2018-05-07T14:25:49.139Z,4920
2018-05-07T14:26:59.246Z,4888
2018-05-07T14:28:09.360Z,4844
2018-05-07T14:29:19.448Z,4860
2018-05-07T14:30:29.598Z,4832
2018-05-07T14:31:39.688Z,4808
2018-05-07T14:32:49.801Z,4788
2018-05-07T14:33:59.895Z,4772
2018-05-07T14:35:10.025Z,4744
2018-05-07T14:36:20.191Z,4732
2018-05-07T14:37:30.023Z,4700
2018-05-07T14:38:40.146Z,4668
2018-05-07T14:39:49.976Z,4636
2018-05-07T14:41:00.092Z,4632
2018-05-07T14:42:10.283Z,4620
2018-05-07T14:43:20.813Z,4612
2018-05-07T14:44:33.419Z,4604
2018-05-07T14:45:45.755Z,4580
2018-05-07T14:46:58.447Z,4552
2018-05-07T14:48:10.600Z,4520
2018-05-07T14:49:22.740Z,4492
2018-05-07T14:50:34.731Z,4496
2018-05-07T14:51:47.536Z,4468
2018-05-07T14:52:58.311Z,4460
2018-05-07T14:54:08.959Z,4460
2018-05-07T14:55:19.091Z,4444
2018-05-07T14:56:29.233Z,4420
2018-05-07T14:57:39.101Z,4408
2018-05-07T14:58:49.219Z,4388
2018-05-07T14:59:59.351Z,4356
2018-05-07T15:01:09.500Z,4344
2018-05-07T15:02:19.364Z,4308
2018-05-07T15:03:28.965Z,4336
2018-05-07T15:04:39.148Z,4256
2018-05-07T15:05:49.315Z,4248
2018-05-07T15:06:59.445Z,4212
2018-05-07T15:08:09.560Z,4180
2018-05-07T15:09:19.698Z,4160
2018-05-07T15:10:29.877Z,4164
2018-05-07T15:11:39.995Z,4144
2018-05-07T15:12:49.844Z,4104
2018-05-07T15:13:59.965Z,4096
2018-05-07T15:15:10.076Z,4072
2018-05-07T15:16:20.265Z,4056
2018-05-07T15:17:30.379Z,4040
2018-05-07T15:18:40.506Z,4000
2018-05-07T15:19:50.357Z,3988
2018-05-07T15:21:00.258Z,3972
2018-05-07T15:22:10.539Z,3952
2018-05-07T15:23:20.970Z,3920
2018-05-07T15:24:30.927Z,3916
2018-05-07T15:25:41.045Z,3884
2018-05-07T15:26:51.174Z,3864
2018-05-07T15:28:00.999Z,3864
2018-05-07T15:29:11.248Z,3816
2018-05-07T15:30:21.379Z,3820
2018-05-07T15:31:31.524Z,3792
2018-05-07T15:32:41.760Z,3796
2018-05-07T15:33:51.886Z,3768
2018-05-07T15:35:12.366Z,3752
2018-05-07T15:36:22.890Z,3728
2018-05-07T15:37:33.175Z,3716
2018-05-07T15:38:43.419Z,3680
2018-05-07T15:39:53.542Z,3660
2018-05-07T15:41:03.644Z,3636
2018-05-07T15:42:13.742Z,3612
2018-05-07T15:43:23.894Z,3612
2018-05-07T15:44:34.165Z,3584
2018-05-07T15:45:44.641Z,3556
2018-05-07T15:46:54.789Z,3516
2018-05-07T15:48:04.990Z,3508
2018-05-07T15:49:15.236Z,3472
2018-05-07T15:50:25.587Z,3460
2018-05-07T15:51:35.705Z,3440
2018-05-07T15:52:45.549Z,3424
2018-05-07T15:53:56.172Z,3396
2018-05-07T15:55:06.090Z,3360
2018-05-07T15:56:16.276Z,3336
2018-05-07T15:57:26.375Z,3316
2018-05-07T15:58:36.191Z,3280
2018-05-07T15:59:45.775Z,3240
2018-05-07T16:00:55.962Z,3232
2018-05-07T16:02:07.042Z,3180
2018-05-07T16:03:17.410Z,3160
2018-05-07T16:04:27.944Z,3144
2018-05-07T16:05:38.023Z,3100
2018-05-07T16:06:48.111Z,3072
2018-05-07T16:07:58.039Z,3044
2018-05-07T16:09:08.134Z,3024
2018-05-07T16:10:18.219Z,2976
2018-05-07T16:11:28.049Z,2944
2018-05-07T16:12:38.157Z,2896
2018-05-07T16:13:48.008Z,2864
2018-05-07T16:14:58.384Z,2808
2018-05-07T16:16:08.732Z,2768
2018-05-07T16:17:18.865Z,2728
2018-05-07T16:18:28.978Z,2684
2018-05-07T16:19:39.193Z,2640
2018-05-07T16:20:49.665Z,2592
2018-05-07T16:22:00.543Z,2548
2018-05-07T16:23:10.746Z,2500
2018-05-07T16:24:20.591Z,2460
2018-05-07T16:25:30.695Z,2416
2018-05-07T16:26:40.955Z,2376
2018-05-07T16:27:51.064Z,2336
2018-05-07T16:29:01.203Z,2300
2018-05-07T16:30:11.311Z,2268
2018-05-07T16:31:21.816Z,2244
2018-05-07T16:32:31.930Z,2224
2018-05-07T16:33:41.770Z,2208
2018-05-07T16:34:51.851Z,2180
2018-05-07T16:36:01.953Z,2172
2018-05-07T16:37:12.111Z,2156